sensor_id;sensor_type;location;lat;lon;timestamp;temperature;humidity
31131;DHT22;20292;50.944;4.034;2022-10-16T00:00:43;15.30;99.90
31131;DHT22;20292;50.944;4.034;2022-10-16T00:03:10;15.40;99.90
31131;DHT22;20292;50.944;4.034;2022-10-16T00:05:43;15.30;99.90
31131;DHT22;20292;50.944;4.034;2022-10-16T00:08:11;15.30;99.90
31131;DHT22;20292;50.944;4.034;2022-10-16T00:10:37;15.30;99.90
31131;DHT22;20292;50.944;4.034;2022-10-16T00:13:03;15.20;99.90
31131;DHT22;20292;50.944;4.034;2022-10-16T00:15:30;15.30;99.90
31131;DHT22;20292;50.944;4.034;2022-10-16T00:17:57;15.30;99.90
31131;DHT22;20292;50.944;4.034;2022-10-16T00:20:23;15.30;99.90
31131;DHT22;20292;50.944;4.034;2022-10-16T00:22:49;15.30;99.90
31131;DHT22;20292;50.944;4.034;2022-10-16T00:25:14;15.30;99.90
31131;DHT22;20292;50.944;4.034;2022-10-16T00:27:40;15.30;99.90
31131;DHT22;20292;50.944;4.034;2022-10-16T00:30:06;15.30;99.90
31131;DHT22;20292;50.944;4.034;2022-10-16T00:32:33;15.20;99.90
31131;DHT22;20292;50.944;4.034;2022-10-16T00:34:59;15.20;99.90
31131;DHT22;20292;50.944;4.034;2022-10-16T00:37:25;15.20;99.90
31131;DHT22;20292;50.944;4.034;2022-10-16T00:39:51;15.20;99.90
31131;DHT22;20292;50.944;4.034;2022-10-16T00:42:18;15.20;99.90
31131;DHT22;20292;50.944;4.034;2022-10-16T00:44:52;15.20;99.90
31131;DHT22;20292;50.944;4.034;2022-10-16T00:47:22;15.20;99.90
31131;DHT22;20292;50.944;4.034;2022-10-16T00:49:51;15.20;99.90
31131;DHT22;20292;50.944;4.034;2022-10-16T00:52:19;15.20;99.90
31131;DHT22;20292;50.944;4.034;2022-10-16T00:54:46;15.10;99.90
31131;DHT22;20292;50.944;4.034;2022-10-16T00:57:12;15.10;99.90
31131;DHT22;20292;50.944;4.034;2022-10-16T00:59:40;15.10;99.90
31131;DHT22;20292;50.944;4.034;2022-10-16T01:02:09;15.10;99.90
31131;DHT22;20292;50.944;4.034;2022-10-16T01:04:40;15.10;99.90
31131;DHT22;20292;50.944;4.034;2022-10-16T01:10:40;15.00;99.90
31131;DHT22;20292;50.944;4.034;2022-10-16T01:13:17;15.00;99.90
31131;DHT22;20292;50.944;4.034;2022-10-16T01:15:55;15.00;99.90
31131;DHT22;20292;50.944;4.034;2022-10-16T01:21:16;15.00;99.90
31131;DHT22;20292;50.944;4.034;2022-10-16T01:26:41;15.00;99.90
31131;DHT22;20292;50.944;4.034;2022-10-16T01:29:16;15.00;99.90
31131;DHT22;20292;50.944;4.034;2022-10-16T01:31:49;14.90;99.90
31131;DHT22;20292;50.944;4.034;2022-10-16T01:34:21;14.90;99.90
31131;DHT22;20292;50.944;4.034;2022-10-16T01:36:55;14.90;99.90
31131;DHT22;20292;50.944;4.034;2022-10-16T01:39:29;14.90;99.90
31131;DHT22;20292;50.944;4.034;2022-10-16T01:42:09;14.90;99.90
31131;DHT22;20292;50.944;4.034;2022-10-16T01:44:37;14.90;99.90
31131;DHT22;20292;50.944;4.034;2022-10-16T01:47:04;14.90;99.90
31131;DHT22;20292;50.944;4.034;2022-10-16T01:49:34;14.90;99.90
31131;DHT22;20292;50.944;4.034;2022-10-16T01:52:05;14.80;99.90
31131;DHT22;20292;50.944;4.034;2022-10-16T01:54:33;14.80;99.90
31131;DHT22;20292;50.944;4.034;2022-10-16T01:57:01;14.80;99.90
31131;DHT22;20292;50.944;4.034;2022-10-16T01:59:30;14.80;99.90
31131;DHT22;20292;50.944;4.034;2022-10-16T02:01:59;14.90;99.90
31131;DHT22;20292;50.944;4.034;2022-10-16T02:04:35;14.90;99.90
31131;DHT22;20292;50.944;4.034;2022-10-16T02:07:02;14.90;99.90
31131;DHT22;20292;50.944;4.034;2022-10-16T02:09:27;14.90;99.90
31131;DHT22;20292;50.944;4.034;2022-10-16T02:11:56;14.90;99.90
31131;DHT22;20292;50.944;4.034;2022-10-16T02:14:24;14.80;99.90
31131;DHT22;20292;50.944;4.034;2022-10-16T02:16:50;14.90;99.90
31131;DHT22;20292;50.944;4.034;2022-10-16T02:19:17;14.90;99.90
31131;DHT22;20292;50.944;4.034;2022-10-16T02:21:54;14.90;99.90
31131;DHT22;20292;50.944;4.034;2022-10-16T02:24:47;14.80;99.90
31131;DHT22;20292;50.944;4.034;2022-10-16T02:27:36;14.90;99.90
31131;DHT22;20292;50.944;4.034;2022-10-16T02:30:14;14.80;99.90
31131;DHT22;20292;50.944;4.034;2022-10-16T02:32:44;14.80;99.90
31131;DHT22;20292;50.944;4.034;2022-10-16T02:35:10;14.80;99.90
31131;DHT22;20292;50.944;4.034;2022-10-16T02:37:37;14.80;99.90
31131;DHT22;20292;50.944;4.034;2022-10-16T02:40:04;14.80;99.90
31131;DHT22;20292;50.944;4.034;2022-10-16T02:42:36;14.80;99.90
31131;DHT22;20292;50.944;4.034;2022-10-16T02:45:02;14.80;99.90
31131;DHT22;20292;50.944;4.034;2022-10-16T02:47:29;14.80;99.90
31131;DHT22;20292;50.944;4.034;2022-10-16T02:49:54;14.80;99.90
31131;DHT22;20292;50.944;4.034;2022-10-16T02:52:20;14.80;99.90
31131;DHT22;20292;50.944;4.034;2022-10-16T02:54:46;14.80;99.90
31131;DHT22;20292;50.944;4.034;2022-10-16T02:57:11;14.80;99.90
31131;DHT22;20292;50.944;4.034;2022-10-16T02:59:37;14.70;99.90
31131;DHT22;20292;50.944;4.034;2022-10-16T03:02:03;14.70;99.90
31131;DHT22;20292;50.944;4.034;2022-10-16T03:04:28;14.70;99.90
31131;DHT22;20292;50.944;4.034;2022-10-16T03:06:54;14.70;99.90
31131;DHT22;20292;50.944;4.034;2022-10-16T03:09:19;14.80;99.90
31131;DHT22;20292;50.944;4.034;2022-10-16T03:11:45;14.70;99.90
31131;DHT22;20292;50.944;4.034;2022-10-16T03:14:11;14.70;99.90
31131;DHT22;20292;50.944;4.034;2022-10-16T03:16:36;14.70;99.90
31131;DHT22;20292;50.944;4.034;2022-10-16T03:19:02;14.60;99.90
31131;DHT22;20292;50.944;4.034;2022-10-16T03:21:28;14.70;99.90
31131;DHT22;20292;50.944;4.034;2022-10-16T03:23:53;14.70;99.90
31131;DHT22;20292;50.944;4.034;2022-10-16T03:26:19;14.70;99.90
31131;DHT22;20292;50.944;4.034;2022-10-16T03:28:45;14.80;99.90
31131;DHT22;20292;50.944;4.034;2022-10-16T03:31:10;14.70;99.90
31131;DHT22;20292;50.944;4.034;2022-10-16T03:33:36;14.80;99.90
31131;DHT22;20292;50.944;4.034;2022-10-16T03:36:01;14.80;99.90
31131;DHT22;20292;50.944;4.034;2022-10-16T03:38:27;14.80;99.90
31131;DHT22;20292;50.944;4.034;2022-10-16T03:40:53;14.80;99.90
31131;DHT22;20292;50.944;4.034;2022-10-16T03:43:18;14.80;99.90
31131;DHT22;20292;50.944;4.034;2022-10-16T03:45:44;14.80;99.90
31131;DHT22;20292;50.944;4.034;2022-10-16T03:48:09;14.80;99.90
31131;DHT22;20292;50.944;4.034;2022-10-16T03:50:35;14.90;99.90
31131;DHT22;20292;50.944;4.034;2022-10-16T03:53:01;14.80;99.90
31131;DHT22;20292;50.944;4.034;2022-10-16T03:55:27;14.80;99.90
31131;DHT22;20292;50.944;4.034;2022-10-16T03:57:52;14.80;99.90
31131;DHT22;20292;50.944;4.034;2022-10-16T04:00:18;14.80;99.90
31131;DHT22;20292;50.944;4.034;2022-10-16T04:02:43;14.80;99.90
31131;DHT22;20292;50.944;4.034;2022-10-16T04:05:09;14.90;99.90
31131;DHT22;20292;50.944;4.034;2022-10-16T04:07:35;14.90;99.90
31131;DHT22;20292;50.944;4.034;2022-10-16T04:10:00;14.90;99.90
31131;DHT22;20292;50.944;4.034;2022-10-16T04:12:27;14.90;99.90
31131;DHT22;20292;50.944;4.034;2022-10-16T04:14:52;14.90;99.90
31131;DHT22;20292;50.944;4.034;2022-10-16T04:17:18;14.90;99.90
31131;DHT22;20292;50.944;4.034;2022-10-16T04:19:44;14.80;99.90
31131;DHT22;20292;50.944;4.034;2022-10-16T04:22:09;14.80;99.90
31131;DHT22;20292;50.944;4.034;2022-10-16T04:24:35;14.80;99.90
31131;DHT22;20292;50.944;4.034;2022-10-16T04:27:00;14.80;99.90
31131;DHT22;20292;50.944;4.034;2022-10-16T04:29:26;14.80;99.90
31131;DHT22;20292;50.944;4.034;2022-10-16T04:31:52;14.80;99.90
31131;DHT22;20292;50.944;4.034;2022-10-16T04:34:17;14.70;99.90
31131;DHT22;20292;50.944;4.034;2022-10-16T04:36:43;14.70;99.90
31131;DHT22;20292;50.944;4.034;2022-10-16T04:39:08;14.60;99.90
31131;DHT22;20292;50.944;4.034;2022-10-16T04:41:34;14.60;99.90
31131;DHT22;20292;50.944;4.034;2022-10-16T04:43:59;14.60;99.90
31131;DHT22;20292;50.944;4.034;2022-10-16T04:46:25;14.50;99.90
31131;DHT22;20292;50.944;4.034;2022-10-16T04:48:51;14.60;99.90
31131;DHT22;20292;50.944;4.034;2022-10-16T04:51:17;14.60;99.90
31131;DHT22;20292;50.944;4.034;2022-10-16T04:53:44;14.60;99.90
31131;DHT22;20292;50.944;4.034;2022-10-16T04:56:09;14.60;99.90
31131;DHT22;20292;50.944;4.034;2022-10-16T04:58:35;14.50;99.90
31131;DHT22;20292;50.944;4.034;2022-10-16T05:01:00;14.50;99.90
31131;DHT22;20292;50.944;4.034;2022-10-16T05:03:26;14.40;99.90
31131;DHT22;20292;50.944;4.034;2022-10-16T05:05:51;14.30;99.90
31131;DHT22;20292;50.944;4.034;2022-10-16T05:08:17;14.40;99.90
31131;DHT22;20292;50.944;4.034;2022-10-16T05:10:43;14.30;99.90
31131;DHT22;20292;50.944;4.034;2022-10-16T05:13:10;14.40;99.90
31131;DHT22;20292;50.944;4.034;2022-10-16T05:15:35;14.40;99.90
31131;DHT22;20292;50.944;4.034;2022-10-16T05:18:01;14.40;99.90
31131;DHT22;20292;50.944;4.034;2022-10-16T05:20:27;14.40;99.90
31131;DHT22;20292;50.944;4.034;2022-10-16T05:22:52;14.30;99.90
31131;DHT22;20292;50.944;4.034;2022-10-16T05:25:18;14.40;99.90
31131;DHT22;20292;50.944;4.034;2022-10-16T05:27:47;14.30;99.90
31131;DHT22;20292;50.944;4.034;2022-10-16T05:30:13;14.30;99.90
31131;DHT22;20292;50.944;4.034;2022-10-16T05:32:38;14.30;99.90
31131;DHT22;20292;50.944;4.034;2022-10-16T05:35:04;14.30;99.90
31131;DHT22;20292;50.944;4.034;2022-10-16T05:37:30;14.30;99.90
31131;DHT22;20292;50.944;4.034;2022-10-16T05:39:55;14.30;99.90
31131;DHT22;20292;50.944;4.034;2022-10-16T05:42:21;14.40;99.90
31131;DHT22;20292;50.944;4.034;2022-10-16T05:44:46;14.30;99.90
31131;DHT22;20292;50.944;4.034;2022-10-16T05:47:12;14.40;99.90
31131;DHT22;20292;50.944;4.034;2022-10-16T05:49:39;14.40;99.90
31131;DHT22;20292;50.944;4.034;2022-10-16T05:52:04;14.50;99.90
31131;DHT22;20292;50.944;4.034;2022-10-16T05:54:30;14.60;99.90
31131;DHT22;20292;50.944;4.034;2022-10-16T05:56:56;14.60;99.90
31131;DHT22;20292;50.944;4.034;2022-10-16T05:59:21;14.70;99.90
31131;DHT22;20292;50.944;4.034;2022-10-16T06:01:47;14.80;99.90
31131;DHT22;20292;50.944;4.034;2022-10-16T06:04:12;14.80;99.90
31131;DHT22;20292;50.944;4.034;2022-10-16T06:06:38;14.90;99.90
31131;DHT22;20292;50.944;4.034;2022-10-16T06:09:04;14.90;99.90
31131;DHT22;20292;50.944;4.034;2022-10-16T06:11:31;14.90;99.90
31131;DHT22;20292;50.944;4.034;2022-10-16T06:14:01;14.90;99.90
31131;DHT22;20292;50.944;4.034;2022-10-16T06:16:33;14.90;99.90
31131;DHT22;20292;50.944;4.034;2022-10-16T06:19:00;14.90;99.90
31131;DHT22;20292;50.944;4.034;2022-10-16T06:21:26;14.80;99.90
31131;DHT22;20292;50.944;4.034;2022-10-16T06:23:53;14.80;99.90
31131;DHT22;20292;50.944;4.034;2022-10-16T06:26:22;14.80;99.90
31131;DHT22;20292;50.944;4.034;2022-10-16T06:28:48;14.80;99.90
31131;DHT22;20292;50.944;4.034;2022-10-16T06:31:14;14.80;99.90
31131;DHT22;20292;50.944;4.034;2022-10-16T06:33:41;14.80;99.90
31131;DHT22;20292;50.944;4.034;2022-10-16T06:36:08;14.90;99.90
31131;DHT22;20292;50.944;4.034;2022-10-16T06:38:34;14.90;99.90
31131;DHT22;20292;50.944;4.034;2022-10-16T06:41:00;14.80;99.90
31131;DHT22;20292;50.944;4.034;2022-10-16T06:43:27;14.80;99.90
31131;DHT22;20292;50.944;4.034;2022-10-16T06:45:56;14.80;99.90
31131;DHT22;20292;50.944;4.034;2022-10-16T06:48:23;14.80;99.90
31131;DHT22;20292;50.944;4.034;2022-10-16T06:51:18;14.80;99.90
31131;DHT22;20292;50.944;4.034;2022-10-16T06:53:50;14.80;99.90
31131;DHT22;20292;50.944;4.034;2022-10-16T06:56:21;14.80;99.90
31131;DHT22;20292;50.944;4.034;2022-10-16T06:58:47;14.80;99.90
31131;DHT22;20292;50.944;4.034;2022-10-16T07:01:14;14.80;99.90
31131;DHT22;20292;50.944;4.034;2022-10-16T07:03:41;14.80;99.90
31131;DHT22;20292;50.944;4.034;2022-10-16T07:06:09;14.70;99.90
31131;DHT22;20292;50.944;4.034;2022-10-16T07:08:36;14.70;99.90
31131;DHT22;20292;50.944;4.034;2022-10-16T07:11:04;14.80;99.90
31131;DHT22;20292;50.944;4.034;2022-10-16T07:13:33;14.80;99.90
31131;DHT22;20292;50.944;4.034;2022-10-16T07:16:07;14.90;99.90
31131;DHT22;20292;50.944;4.034;2022-10-16T07:18:34;14.90;99.90
31131;DHT22;20292;50.944;4.034;2022-10-16T07:21:12;14.90;99.90
31131;DHT22;20292;50.944;4.034;2022-10-16T07:23:38;15.00;99.90
31131;DHT22;20292;50.944;4.034;2022-10-16T07:26:04;15.00;99.90
31131;DHT22;20292;50.944;4.034;2022-10-16T07:28:31;15.10;99.90
31131;DHT22;20292;50.944;4.034;2022-10-16T07:31:14;15.10;99.90
31131;DHT22;20292;50.944;4.034;2022-10-16T07:33:41;15.20;99.90
31131;DHT22;20292;50.944;4.034;2022-10-16T07:36:10;15.20;99.90
31131;DHT22;20292;50.944;4.034;2022-10-16T07:38:35;15.20;99.90
31131;DHT22;20292;50.944;4.034;2022-10-16T07:41:03;15.30;99.90
31131;DHT22;20292;50.944;4.034;2022-10-16T07:43:29;15.30;99.90
31131;DHT22;20292;50.944;4.034;2022-10-16T07:45:55;15.40;99.90
31131;DHT22;20292;50.944;4.034;2022-10-16T07:48:22;15.50;99.90
31131;DHT22;20292;50.944;4.034;2022-10-16T07:50:48;15.60;99.90
31131;DHT22;20292;50.944;4.034;2022-10-16T07:53:14;15.70;99.90
31131;DHT22;20292;50.944;4.034;2022-10-16T07:55:40;15.80;99.90
31131;DHT22;20292;50.944;4.034;2022-10-16T07:58:06;16.00;99.90
31131;DHT22;20292;50.944;4.034;2022-10-16T08:00:32;16.40;99.90
31131;DHT22;20292;50.944;4.034;2022-10-16T08:02:58;16.90;99.90
31131;DHT22;20292;50.944;4.034;2022-10-16T08:05:28;17.50;99.90
31131;DHT22;20292;50.944;4.034;2022-10-16T08:07:53;17.90;99.90
31131;DHT22;20292;50.944;4.034;2022-10-16T08:10:21;18.10;99.90
31131;DHT22;20292;50.944;4.034;2022-10-16T08:12:47;18.40;99.90
31131;DHT22;20292;50.944;4.034;2022-10-16T08:15:14;18.60;99.90
31131;DHT22;20292;50.944;4.034;2022-10-16T08:17:40;18.80;99.90
31131;DHT22;20292;50.944;4.034;2022-10-16T08:20:05;19.00;99.90
31131;DHT22;20292;50.944;4.034;2022-10-16T08:22:31;19.10;99.90
31131;DHT22;20292;50.944;4.034;2022-10-16T08:24:57;19.30;99.90
31131;DHT22;20292;50.944;4.034;2022-10-16T08:27:23;19.40;99.90
31131;DHT22;20292;50.944;4.034;2022-10-16T08:29:49;19.50;99.90
31131;DHT22;20292;50.944;4.034;2022-10-16T08:32:15;19.70;99.90
31131;DHT22;20292;50.944;4.034;2022-10-16T08:34:40;19.80;99.90
31131;DHT22;20292;50.944;4.034;2022-10-16T08:37:06;19.90;99.90
31131;DHT22;20292;50.944;4.034;2022-10-16T08:39:33;19.80;99.90
31131;DHT22;20292;50.944;4.034;2022-10-16T08:42:13;19.90;99.90
31131;DHT22;20292;50.944;4.034;2022-10-16T08:50:38;20.10;99.90
31131;DHT22;20292;50.944;4.034;2022-10-16T08:53:05;19.90;99.90
31131;DHT22;20292;50.944;4.034;2022-10-16T08:58:18;19.90;99.90
31131;DHT22;20292;50.944;4.034;2022-10-16T09:00:58;19.90;99.90
31131;DHT22;20292;50.944;4.034;2022-10-16T09:06:48;19.70;99.90
31131;DHT22;20292;50.944;4.034;2022-10-16T09:09:25;19.60;99.90
31131;DHT22;20292;50.944;4.034;2022-10-16T09:14:47;19.50;99.90
31131;DHT22;20292;50.944;4.034;2022-10-16T09:22:30;19.40;99.90
31131;DHT22;20292;50.944;4.034;2022-10-16T09:25:00;19.40;99.90
31131;DHT22;20292;50.944;4.034;2022-10-16T09:27:26;19.50;99.90
31131;DHT22;20292;50.944;4.034;2022-10-16T09:29:52;19.50;99.90
31131;DHT22;20292;50.944;4.034;2022-10-16T09:32:19;19.40;99.90
31131;DHT22;20292;50.944;4.034;2022-10-16T09:34:50;19.50;99.90
31131;DHT22;20292;50.944;4.034;2022-10-16T09:37:22;19.50;99.90
31131;DHT22;20292;50.944;4.034;2022-10-16T09:39:50;19.50;99.90
31131;DHT22;20292;50.944;4.034;2022-10-16T09:42:21;19.50;99.90
31131;DHT22;20292;50.944;4.034;2022-10-16T09:44:50;19.40;99.90
31131;DHT22;20292;50.944;4.034;2022-10-16T09:47:21;19.40;99.90
31131;DHT22;20292;50.944;4.034;2022-10-16T09:52:19;19.30;99.90
31131;DHT22;20292;50.944;4.034;2022-10-16T09:54:56;19.20;99.90
31131;DHT22;20292;50.944;4.034;2022-10-16T09:57:22;19.20;99.90
31131;DHT22;20292;50.944;4.034;2022-10-16T09:59:52;19.30;99.90
31131;DHT22;20292;50.944;4.034;2022-10-16T10:02:28;19.30;99.90
31131;DHT22;20292;50.944;4.034;2022-10-16T10:04:55;19.40;99.90
31131;DHT22;20292;50.944;4.034;2022-10-16T10:07:25;19.30;99.90
31131;DHT22;20292;50.944;4.034;2022-10-16T10:09:52;19.30;99.90
31131;DHT22;20292;50.944;4.034;2022-10-16T10:12:21;19.30;99.90
31131;DHT22;20292;50.944;4.034;2022-10-16T10:14:54;19.20;99.90
31131;DHT22;20292;50.944;4.034;2022-10-16T10:17:25;19.30;99.90
31131;DHT22;20292;50.944;4.034;2022-10-16T10:20:32;19.20;99.90
31131;DHT22;20292;50.944;4.034;2022-10-16T10:23:00;19.30;99.90
31131;DHT22;20292;50.944;4.034;2022-10-16T10:28:55;19.40;99.90
31131;DHT22;20292;50.944;4.034;2022-10-16T10:40:43;19.60;99.90
31131;DHT22;20292;50.944;4.034;2022-10-16T10:46:04;19.60;99.90
31131;DHT22;20292;50.944;4.034;2022-10-16T10:51:59;19.60;99.90
31131;DHT22;20292;50.944;4.034;2022-10-16T10:54:38;19.60;99.90
31131;DHT22;20292;50.944;4.034;2022-10-16T11:08:20;19.60;99.90
31131;DHT22;20292;50.944;4.034;2022-10-16T11:11:08;19.60;99.90
31131;DHT22;20292;50.944;4.034;2022-10-16T11:14:08;19.60;99.90
31131;DHT22;20292;50.944;4.034;2022-10-16T11:16:40;19.70;99.90
31131;DHT22;20292;50.944;4.034;2022-10-16T11:21:46;19.80;99.90
31131;DHT22;20292;50.944;4.034;2022-10-16T11:24:40;20.00;99.90
31131;DHT22;20292;50.944;4.034;2022-10-16T11:27:09;20.10;99.90
31131;DHT22;20292;50.944;4.034;2022-10-16T11:29:49;20.30;99.90
31131;DHT22;20292;50.944;4.034;2022-10-16T11:32:23;20.50;99.90
31131;DHT22;20292;50.944;4.034;2022-10-16T11:34:55;20.60;99.90
31131;DHT22;20292;50.944;4.034;2022-10-16T11:37:33;20.60;99.90
31131;DHT22;20292;50.944;4.034;2022-10-16T11:40:31;20.70;99.90
31131;DHT22;20292;50.944;4.034;2022-10-16T11:43:29;20.70;99.90
31131;DHT22;20292;50.944;4.034;2022-10-16T11:46:24;20.70;99.90
31131;DHT22;20292;50.944;4.034;2022-10-16T11:49:17;20.70;99.90
31131;DHT22;20292;50.944;4.034;2022-10-16T11:55:34;20.60;99.90
31131;DHT22;20292;50.944;4.034;2022-10-16T11:57:45;20.80;99.90
31131;DHT22;20292;50.944;4.034;2022-10-16T12:00:28;20.70;99.90
31131;DHT22;20292;50.944;4.034;2022-10-16T12:03:36;20.80;99.90
31131;DHT22;20292;50.944;4.034;2022-10-16T12:08:28;20.70;99.90
31131;DHT22;20292;50.944;4.034;2022-10-16T12:11:05;20.80;99.90
31131;DHT22;20292;50.944;4.034;2022-10-16T12:13:36;20.80;99.90
31131;DHT22;20292;50.944;4.034;2022-10-16T12:16:06;20.80;99.90
31131;DHT22;20292;50.944;4.034;2022-10-16T12:18:32;20.80;99.90
31131;DHT22;20292;50.944;4.034;2022-10-16T12:20:59;20.90;99.90
31131;DHT22;20292;50.944;4.034;2022-10-16T12:23:30;21.00;99.90
31131;DHT22;20292;50.944;4.034;2022-10-16T12:25:58;21.00;99.90
31131;DHT22;20292;50.944;4.034;2022-10-16T12:28:31;21.00;99.90
31131;DHT22;20292;50.944;4.034;2022-10-16T12:31:05;21.00;99.90
31131;DHT22;20292;50.944;4.034;2022-10-16T12:33:41;21.20;99.90
31131;DHT22;20292;50.944;4.034;2022-10-16T12:36:16;21.20;99.90
31131;DHT22;20292;50.944;4.034;2022-10-16T12:38:52;21.30;99.90
31131;DHT22;20292;50.944;4.034;2022-10-16T12:41:27;21.20;99.90
31131;DHT22;20292;50.944;4.034;2022-10-16T12:43:53;21.20;99.90
31131;DHT22;20292;50.944;4.034;2022-10-16T12:48:44;21.20;99.90
31131;DHT22;20292;50.944;4.034;2022-10-16T12:51:33;21.10;99.90
31131;DHT22;20292;50.944;4.034;2022-10-16T12:59:35;20.90;99.90
31131;DHT22;20292;50.944;4.034;2022-10-16T13:04:46;21.20;99.90
31131;DHT22;20292;50.944;4.034;2022-10-16T13:13:17;21.50;99.90
31131;DHT22;20292;50.944;4.034;2022-10-16T13:22:01;21.40;99.90
31131;DHT22;20292;50.944;4.034;2022-10-16T13:27:05;21.40;99.90
31131;DHT22;20292;50.944;4.034;2022-10-16T13:29:33;21.40;99.90
31131;DHT22;20292;50.944;4.034;2022-10-16T13:32:00;21.50;99.90
31131;DHT22;20292;50.944;4.034;2022-10-16T13:34:27;21.70;99.90
31131;DHT22;20292;50.944;4.034;2022-10-16T13:36:53;21.80;99.90
31131;DHT22;20292;50.944;4.034;2022-10-16T13:39:29;21.90;99.90
31131;DHT22;20292;50.944;4.034;2022-10-16T13:44:52;21.90;99.90
31131;DHT22;20292;50.944;4.034;2022-10-16T13:47:20;21.90;99.90
31131;DHT22;20292;50.944;4.034;2022-10-16T13:49:48;21.90;99.90
31131;DHT22;20292;50.944;4.034;2022-10-16T13:52:23;21.90;99.90
31131;DHT22;20292;50.944;4.034;2022-10-16T13:54:49;21.90;99.90
31131;DHT22;20292;50.944;4.034;2022-10-16T13:57:15;22.00;99.90
31131;DHT22;20292;50.944;4.034;2022-10-16T13:59:42;21.80;99.90
31131;DHT22;20292;50.944;4.034;2022-10-16T14:04:46;21.90;99.90
31131;DHT22;20292;50.944;4.034;2022-10-16T14:07:16;21.90;99.90
31131;DHT22;20292;50.944;4.034;2022-10-16T14:09:49;21.90;99.90
31131;DHT22;20292;50.944;4.034;2022-10-16T14:12:15;22.00;99.90
31131;DHT22;20292;50.944;4.034;2022-10-16T14:17:32;21.90;99.90
31131;DHT22;20292;50.944;4.034;2022-10-16T14:20:01;21.90;99.90
31131;DHT22;20292;50.944;4.034;2022-10-16T14:22:35;21.80;99.90
31131;DHT22;20292;50.944;4.034;2022-10-16T14:25:32;21.90;99.90
31131;DHT22;20292;50.944;4.034;2022-10-16T14:30:35;22.00;99.90
31131;DHT22;20292;50.944;4.034;2022-10-16T14:33:04;21.80;99.90
31131;DHT22;20292;50.944;4.034;2022-10-16T14:35:33;21.70;99.90
31131;DHT22;20292;50.944;4.034;2022-10-16T14:38:00;21.50;99.90
31131;DHT22;20292;50.944;4.034;2022-10-16T14:40:33;21.50;99.90
31131;DHT22;20292;50.944;4.034;2022-10-16T14:43:01;21.30;99.90
31131;DHT22;20292;50.944;4.034;2022-10-16T14:45:29;21.30;99.90
31131;DHT22;20292;50.944;4.034;2022-10-16T14:48:02;21.30;99.90
31131;DHT22;20292;50.944;4.034;2022-10-16T14:50:29;21.30;99.90
31131;DHT22;20292;50.944;4.034;2022-10-16T14:52:55;21.10;99.90
31131;DHT22;20292;50.944;4.034;2022-10-16T14:55:21;21.10;99.90
31131;DHT22;20292;50.944;4.034;2022-10-16T14:57:47;21.20;99.90
31131;DHT22;20292;50.944;4.034;2022-10-16T15:00:21;21.00;99.90
31131;DHT22;20292;50.944;4.034;2022-10-16T15:02:48;21.10;99.90
31131;DHT22;20292;50.944;4.034;2022-10-16T15:05:16;20.90;99.90
31131;DHT22;20292;50.944;4.034;2022-10-16T15:07:42;20.90;99.90
31131;DHT22;20292;50.944;4.034;2022-10-16T15:10:08;21.00;99.90
31131;DHT22;20292;50.944;4.034;2022-10-16T15:12:33;21.00;99.90
31131;DHT22;20292;50.944;4.034;2022-10-16T15:14:59;21.10;99.90
31131;DHT22;20292;50.944;4.034;2022-10-16T15:17:24;21.10;99.90
31131;DHT22;20292;50.944;4.034;2022-10-16T15:19:50;20.90;99.90
31131;DHT22;20292;50.944;4.034;2022-10-16T15:22:17;20.70;99.90
31131;DHT22;20292;50.944;4.034;2022-10-16T15:24:43;20.80;99.90
31131;DHT22;20292;50.944;4.034;2022-10-16T15:27:08;20.80;99.90
31131;DHT22;20292;50.944;4.034;2022-10-16T15:29:34;20.80;99.90
31131;DHT22;20292;50.944;4.034;2022-10-16T15:32:00;20.90;99.90
31131;DHT22;20292;50.944;4.034;2022-10-16T15:34:25;20.80;99.90
31131;DHT22;20292;50.944;4.034;2022-10-16T15:36:51;20.80;99.90
31131;DHT22;20292;50.944;4.034;2022-10-16T15:39:19;20.90;99.90
31131;DHT22;20292;50.944;4.034;2022-10-16T15:41:46;20.80;99.90
31131;DHT22;20292;50.944;4.034;2022-10-16T15:44:16;20.70;99.90
31131;DHT22;20292;50.944;4.034;2022-10-16T15:46:42;20.40;99.90
31131;DHT22;20292;50.944;4.034;2022-10-16T15:49:09;20.10;99.90
31131;DHT22;20292;50.944;4.034;2022-10-16T15:51:38;20.00;99.90
31131;DHT22;20292;50.944;4.034;2022-10-16T15:54:04;19.80;99.90
31131;DHT22;20292;50.944;4.034;2022-10-16T15:56:29;19.70;99.90
31131;DHT22;20292;50.944;4.034;2022-10-16T15:59:01;19.50;99.90
31131;DHT22;20292;50.944;4.034;2022-10-16T16:01:27;19.20;99.90
31131;DHT22;20292;50.944;4.034;2022-10-16T16:03:55;19.00;99.90
31131;DHT22;20292;50.944;4.034;2022-10-16T16:06:22;18.80;99.90
31131;DHT22;20292;50.944;4.034;2022-10-16T16:08:49;18.70;99.90
31131;DHT22;20292;50.944;4.034;2022-10-16T16:11:16;18.60;99.90
31131;DHT22;20292;50.944;4.034;2022-10-16T16:13:42;18.70;99.90
31131;DHT22;20292;50.944;4.034;2022-10-16T16:16:10;18.60;99.90
31131;DHT22;20292;50.944;4.034;2022-10-16T16:18:36;18.60;99.90
31131;DHT22;20292;50.944;4.034;2022-10-16T16:21:01;18.60;99.90
31131;DHT22;20292;50.944;4.034;2022-10-16T16:23:27;18.70;99.90
31131;DHT22;20292;50.944;4.034;2022-10-16T16:26:29;18.80;99.90
31131;DHT22;20292;50.944;4.034;2022-10-16T16:28:56;18.90;99.90
31131;DHT22;20292;50.944;4.034;2022-10-16T16:31:26;19.00;99.90
31131;DHT22;20292;50.944;4.034;2022-10-16T16:33:52;18.70;99.90
31131;DHT22;20292;50.944;4.034;2022-10-16T16:36:18;18.50;99.90
31131;DHT22;20292;50.944;4.034;2022-10-16T16:38:45;18.50;99.90
31131;DHT22;20292;50.944;4.034;2022-10-16T16:41:15;18.50;99.90
31131;DHT22;20292;50.944;4.034;2022-10-16T16:43:41;18.50;99.90
31131;DHT22;20292;50.944;4.034;2022-10-16T16:46:07;18.40;99.90
31131;DHT22;20292;50.944;4.034;2022-10-16T16:48:33;18.30;99.90
31131;DHT22;20292;50.944;4.034;2022-10-16T16:51:10;18.40;99.90
31131;DHT22;20292;50.944;4.034;2022-10-16T16:53:40;18.60;99.90
31131;DHT22;20292;50.944;4.034;2022-10-16T16:56:06;18.80;99.90
31131;DHT22;20292;50.944;4.034;2022-10-16T16:58:32;19.00;99.90
31131;DHT22;20292;50.944;4.034;2022-10-16T17:00:58;19.10;99.90
31131;DHT22;20292;50.944;4.034;2022-10-16T17:03:30;19.20;99.90
31131;DHT22;20292;50.944;4.034;2022-10-16T17:06:07;19.30;99.90
31131;DHT22;20292;50.944;4.034;2022-10-16T17:08:34;19.30;99.90
31131;DHT22;20292;50.944;4.034;2022-10-16T17:11:00;19.30;99.90
31131;DHT22;20292;50.944;4.034;2022-10-16T17:13:29;19.40;99.90
31131;DHT22;20292;50.944;4.034;2022-10-16T17:15:55;19.40;99.90
31131;DHT22;20292;50.944;4.034;2022-10-16T17:18:23;19.60;99.90
31131;DHT22;20292;50.944;4.034;2022-10-16T17:20:49;19.60;99.90
31131;DHT22;20292;50.944;4.034;2022-10-16T17:23:17;19.60;99.90
31131;DHT22;20292;50.944;4.034;2022-10-16T17:25:42;19.60;99.90
31131;DHT22;20292;50.944;4.034;2022-10-16T17:28:09;19.60;99.90